createdAt,value
2018-06-05T00:00:11.110Z,26.80
2018-06-05T00:02:39.489Z,25.67
2018-06-05T00:05:08.247Z,26.53
2018-06-05T00:07:36.652Z,24.83
2018-06-05T00:10:06.133Z,26.27
2018-06-05T00:12:34.922Z,25.00
2018-06-05T00:15:03.699Z,26.43
2018-06-05T00:17:32.509Z,27.77
2018-06-05T00:20:01.298Z,26.67
2018-06-05T00:22:30.104Z,27.60
2018-06-05T00:24:58.844Z,25.53
2018-06-05T00:27:27.647Z,29.07
2018-06-05T00:29:56.446Z,26.63
2018-06-05T00:32:24.993Z,26.83
2018-06-05T00:34:53.774Z,26.00
2018-06-05T00:37:22.554Z,25.93
2018-06-05T00:39:51.361Z,23.77
2018-06-05T00:42:20.192Z,23.57
2018-06-05T00:44:48.975Z,23.10
2018-06-05T00:47:17.713Z,21.37
2018-06-05T00:49:46.582Z,22.07
2018-06-05T00:52:15.361Z,21.67
2018-06-05T00:54:44.153Z,21.90
2018-06-05T00:57:12.941Z,20.93
2018-06-05T00:59:41.351Z,21.97
2018-06-05T01:02:09.795Z,21.77
2018-06-05T01:04:38.585Z,23.47
2018-06-05T01:07:07.422Z,23.00
2018-06-05T01:09:35.790Z,22.67
2018-06-05T01:12:04.574Z,22.47
2018-06-05T01:14:33.343Z,22.90
2018-06-05T01:17:02.172Z,22.33
2018-06-05T01:19:30.965Z,22.20
2018-06-05T01:21:59.744Z,22.73
2018-06-05T01:24:28.554Z,21.50
2018-06-05T01:26:57.342Z,22.40
2018-06-05T01:29:25.750Z,23.50
2018-06-05T01:31:54.598Z,22.50
2018-06-05T01:34:23.356Z,22.30
2018-06-05T01:36:51.784Z,22.17
2018-06-05T01:39:20.575Z,21.97
2018-06-05T01:41:48.973Z,22.03
2018-06-05T01:44:17.402Z,22.70
2018-06-05T01:46:45.806Z,22.67
2018-06-05T01:49:14.588Z,19.70
2018-06-05T01:51:43.372Z,19.43
2018-06-05T01:54:11.794Z,21.00
2018-06-05T01:56:40.642Z,20.17
2018-06-05T01:59:09.417Z,19.93
2018-06-05T02:01:37.828Z,20.47
2018-06-05T02:04:07.123Z,19.03
2018-06-05T02:06:35.894Z,20.17
2018-06-05T02:09:06.540Z,19.83
2018-06-05T02:11:34.929Z,19.23
2018-06-05T02:14:03.849Z,18.87
2018-06-05T02:16:32.265Z,17.87
2018-06-05T02:19:01.064Z,18.20
2018-06-05T02:21:29.805Z,18.73
2018-06-05T02:23:58.614Z,18.60
2018-06-05T02:26:27.366Z,16.90
2018-06-05T02:28:56.137Z,17.53
2018-06-05T02:31:24.542Z,17.33
2018-06-05T02:33:53.349Z,17.83
2018-06-05T02:36:22.143Z,18.47
2018-06-05T02:38:50.533Z,18.23
2018-06-05T02:41:19.338Z,18.37
2018-06-05T02:43:48.109Z,18.53
2018-06-05T02:46:16.539Z,17.63
2018-06-05T02:48:45.308Z,17.37
2018-06-05T02:51:14.121Z,17.37
2018-06-05T02:53:42.513Z,19.17
2018-06-05T02:56:10.930Z,17.60
2018-06-05T02:58:39.311Z,18.83
2018-06-05T03:01:07.812Z,19.80
2018-06-05T03:03:36.583Z,19.93
2018-06-05T03:06:04.958Z,21.47
2018-06-05T03:08:33.777Z,21.53
2018-06-05T03:11:02.595Z,20.87
2018-06-05T03:13:31.389Z,21.23
2018-06-05T03:15:59.777Z,19.00
2018-06-05T03:18:28.554Z,20.03
2018-06-05T03:20:56.940Z,19.87
2018-06-05T03:23:25.377Z,20.03
2018-06-05T03:25:53.754Z,20.40
2018-06-05T03:28:22.614Z,18.57
2018-06-05T03:30:51.008Z,18.40
2018-06-05T03:33:19.559Z,17.33
2018-06-05T03:35:48.327Z,19.13
2018-06-05T03:38:17.105Z,19.80
2018-06-05T03:40:45.942Z,18.33
2018-06-05T03:43:14.715Z,18.37
2018-06-05T03:45:43.554Z,18.43
2018-06-05T03:48:11.978Z,18.83
2018-06-05T03:50:40.856Z,19.80
2018-06-05T03:53:09.635Z,18.73
2018-06-05T03:55:38.012Z,18.20
2018-06-05T03:58:06.445Z,18.40
2018-06-05T04:00:34.791Z,19.17
2018-06-05T04:03:03.229Z,18.73
2018-06-05T04:05:31.629Z,21.10
2018-06-05T04:08:00.039Z,19.10
2018-06-05T04:10:28.825Z,19.37
2018-06-05T04:12:57.236Z,20.67
2018-06-05T04:15:26.098Z,19.33
2018-06-05T04:17:54.498Z,18.57
2018-06-05T04:20:22.863Z,18.17
2018-06-05T04:22:51.301Z,18.77
2018-06-05T04:25:20.124Z,19.10
2018-06-05T04:27:48.890Z,19.67
2018-06-05T04:30:18.266Z,19.33
2018-06-05T04:32:46.858Z,18.83
2018-06-05T04:35:15.639Z,19.10
2018-06-05T04:37:44.428Z,20.10
2018-06-05T04:40:12.783Z,18.87
2018-06-05T04:42:41.564Z,19.20
2018-06-05T04:45:10.301Z,19.20
2018-06-05T04:47:39.149Z,19.70
2018-06-05T04:50:07.522Z,18.40
2018-06-05T04:52:36.317Z,20.23
2018-06-05T04:55:04.750Z,20.10
2018-06-05T04:57:33.524Z,19.40
2018-06-05T05:00:02.364Z,20.00
2018-06-05T05:02:30.725Z,20.13
2018-06-05T05:04:59.509Z,19.47
2018-06-05T05:07:28.319Z,17.77
2018-06-05T05:09:56.672Z,20.00
2018-06-05T05:12:25.078Z,17.93
2018-06-05T05:14:53.863Z,18.77
2018-06-05T05:17:22.252Z,18.33
2018-06-05T05:19:50.989Z,19.07
2018-06-05T05:22:19.821Z,19.17
2018-06-05T05:24:48.243Z,18.27
2018-06-05T05:27:17.523Z,19.83
2018-06-05T05:29:46.240Z,19.63
2018-06-05T05:32:14.653Z,19.63
2018-06-05T05:34:43.090Z,19.63
2018-06-05T05:37:11.871Z,19.37
2018-06-05T05:39:40.672Z,19.70
2018-06-05T05:42:09.429Z,21.00
2018-06-05T05:44:38.320Z,21.17
2018-06-05T05:47:06.675Z,20.43
2018-06-05T05:49:35.112Z,19.37
2018-06-05T05:52:03.699Z,21.13
2018-06-05T05:54:32.539Z,19.73
2018-06-05T05:57:00.904Z,19.87
2018-06-05T05:59:29.312Z,19.30
2018-06-05T06:01:58.116Z,22.27
2018-06-05T06:04:26.910Z,20.67
2018-06-05T06:06:55.751Z,20.13
2018-06-05T06:09:24.507Z,19.47
2018-06-05T06:11:52.905Z,19.70
2018-06-05T06:14:21.694Z,19.57
2018-06-05T06:16:50.109Z,18.87
2018-06-05T06:19:18.850Z,20.07
2018-06-05T06:21:47.655Z,18.87
2018-06-05T06:24:16.091Z,18.70
2018-06-05T06:26:44.857Z,18.43
2018-06-05T06:29:13.739Z,19.13
2018-06-05T06:31:42.153Z,17.67
2018-06-05T06:34:10.891Z,17.57
2018-06-05T06:36:39.834Z,17.83
2018-06-05T06:39:09.062Z,18.27
2018-06-05T06:41:38.190Z,18.27
2018-06-05T06:44:07.030Z,18.70
2018-06-05T06:46:35.449Z,18.27
2018-06-05T06:49:04.326Z,18.40
2018-06-05T06:51:32.700Z,18.60
2018-06-05T06:54:01.472Z,18.40
2018-06-05T06:56:30.303Z,18.20
2018-06-05T06:58:59.082Z,17.43
2018-06-05T07:01:27.834Z,18.47
2018-06-05T07:03:56.201Z,17.80
2018-06-05T07:06:24.974Z,17.73
2018-06-05T07:08:53.730Z,17.40
2018-06-05T07:11:22.493Z,18.47
2018-06-05T07:13:51.286Z,17.53
2018-06-05T07:16:19.803Z,19.20
2018-06-05T07:18:48.185Z,18.67
2018-06-05T07:21:16.955Z,18.13
2018-06-05T07:23:45.367Z,18.63
2018-06-05T07:26:14.174Z,17.70
2018-06-05T07:28:42.553Z,18.13
2018-06-05T07:31:10.974Z,17.97
2018-06-05T07:33:39.365Z,17.97
2018-06-05T07:36:08.197Z,18.63
2018-06-05T07:38:36.594Z,18.33
2018-06-05T07:41:05.357Z,18.43
2018-06-05T07:43:34.118Z,17.53
2018-06-05T07:46:02.523Z,18.13
2018-06-05T07:48:31.317Z,18.40
2018-06-05T07:51:00.125Z,18.27
2018-06-05T07:53:28.476Z,20.37
2018-06-05T07:55:57.262Z,18.73
2018-06-05T07:58:26.046Z,19.47
2018-06-05T08:00:54.473Z,20.53
2018-06-05T08:03:23.230Z,20.40
2018-06-05T08:05:51.717Z,20.67
2018-06-05T08:08:20.459Z,19.80
2018-06-05T08:10:49.192Z,18.80
2018-06-05T08:13:17.587Z,19.93
2018-06-05T08:15:46.379Z,19.70
2018-06-05T08:18:14.781Z,19.37
2018-06-05T08:20:43.184Z,19.23
2018-06-05T08:23:11.973Z,20.10
2018-06-05T08:25:40.741Z,19.70
2018-06-05T08:28:09.823Z,18.60
2018-06-05T08:30:38.229Z,19.10
2018-06-05T08:33:07.020Z,19.13
2018-06-05T08:35:35.570Z,18.77
2018-06-05T08:38:04.384Z,17.67
2018-06-05T08:40:32.805Z,18.10
2018-06-05T08:43:01.172Z,16.80
2018-06-05T08:45:29.965Z,17.67
2018-06-05T08:47:58.335Z,18.77
2018-06-05T08:50:27.236Z,18.83
2018-06-05T08:52:56.030Z,18.23
2018-06-05T08:55:24.816Z,18.47
2018-06-05T08:57:53.222Z,19.20
2018-06-05T09:00:22.043Z,17.30
2018-06-05T09:02:50.806Z,15.03
2018-06-05T09:05:19.223Z,15.40
2018-06-05T09:07:48.126Z,13.60
2018-06-05T09:10:16.529Z,13.47
2018-06-05T09:12:44.959Z,13.77
2018-06-05T09:15:13.764Z,13.27
2018-06-05T09:17:42.544Z,13.47
2018-06-05T09:20:11.328Z,13.83
2018-06-05T09:22:40.120Z,13.40
2018-06-05T09:25:08.980Z,13.50
2018-06-05T09:27:37.762Z,14.50
2018-06-05T09:30:06.195Z,13.30
2018-06-05T09:32:34.995Z,12.90
2018-06-05T09:35:03.810Z,13.77
2018-06-05T09:37:32.649Z,13.63
2018-06-05T09:40:01.036Z,13.67
2018-06-05T09:42:29.873Z,13.50
2018-06-05T09:44:58.620Z,13.57
2018-06-05T09:47:27.367Z,13.60
2018-06-05T09:49:55.793Z,12.80
2018-06-05T09:52:24.689Z,13.17
2018-06-05T09:54:53.053Z,13.10
2018-06-05T09:57:21.462Z,13.27
2018-06-05T09:59:50.258Z,14.27
2018-06-05T10:02:19.065Z,13.73
2018-06-05T10:04:47.837Z,12.40
2018-06-05T10:07:16.229Z,13.13
2018-06-05T10:09:45.037Z,13.50
2018-06-05T10:12:13.432Z,14.00
2018-06-05T10:14:42.227Z,13.87
2018-06-05T10:17:11.041Z,13.73
2018-06-05T10:19:39.812Z,13.50
2018-06-05T10:22:08.610Z,14.10
2018-06-05T10:24:37.372Z,14.03
2018-06-05T10:27:06.162Z,13.70
2018-06-05T10:29:34.978Z,14.03
2018-06-05T10:32:03.863Z,15.03
2018-06-05T10:34:32.248Z,14.30
2018-06-05T10:37:01.080Z,14.73
2018-06-05T10:39:29.602Z,14.17
2018-06-05T10:41:58.374Z,13.87
2018-06-05T10:44:26.767Z,14.40
2018-06-05T10:46:55.539Z,14.10
2018-06-05T10:49:24.331Z,14.93
2018-06-05T10:51:53.103Z,14.53
2018-06-05T10:54:21.474Z,14.73
2018-06-05T10:56:50.284Z,15.13
2018-06-05T10:59:18.717Z,13.43
2018-06-05T11:01:47.478Z,13.73
2018-06-05T11:04:15.845Z,13.57
2018-06-05T11:06:44.243Z,15.03
2018-06-05T11:09:12.582Z,14.27
2018-06-05T11:11:41.423Z,14.77
2018-06-05T11:14:10.168Z,13.77
2018-06-05T11:16:38.987Z,14.10
2018-06-05T11:19:07.398Z,13.53
2018-06-05T11:21:36.232Z,14.20
2018-06-05T11:24:04.619Z,13.57
2018-06-05T11:26:33.044Z,15.00
2018-06-05T11:29:01.934Z,13.57
2018-06-05T11:31:30.697Z,13.90
2018-06-05T11:33:59.561Z,12.93
2018-06-05T11:36:28.377Z,14.67
2018-06-05T11:38:56.834Z,13.23
2018-06-05T11:41:25.295Z,14.87
2018-06-05T11:43:54.089Z,12.83
2018-06-05T11:46:22.839Z,13.20
2018-06-05T11:48:51.722Z,13.77
2018-06-05T11:51:20.113Z,13.53
2018-06-05T11:53:48.862Z,13.60
2018-06-05T11:56:17.734Z,14.67
2018-06-05T11:58:46.543Z,14.10
2018-06-05T12:01:15.321Z,12.13
2018-06-05T12:03:44.119Z,14.07
2018-06-05T12:06:12.940Z,13.80
2018-06-05T12:08:41.312Z,14.20
2018-06-05T12:11:10.089Z,13.97
2018-06-05T12:13:38.450Z,13.47
2018-06-05T12:16:07.286Z,14.37
2018-06-05T12:18:35.667Z,11.97
2018-06-05T12:21:04.455Z,14.20
2018-06-05T12:23:33.259Z,13.53
2018-06-05T12:26:02.015Z,12.13
2018-06-05T12:28:30.804Z,13.50
2018-06-05T12:30:59.606Z,12.77
2018-06-05T12:33:28.476Z,12.07
2018-06-05T12:35:57.283Z,12.90
2018-06-05T12:38:25.712Z,12.13
2018-06-05T12:40:54.462Z,11.87
2018-06-05T12:43:22.871Z,13.37
2018-06-05T12:45:51.649Z,12.40
2018-06-05T12:48:20.440Z,11.67
2018-06-05T12:50:49.250Z,11.97
2018-06-05T12:53:18.095Z,11.53
2018-06-05T12:55:46.524Z,12.90
2018-06-05T12:58:15.303Z,12.10
2018-06-05T13:00:44.106Z,11.53
2018-06-05T13:03:12.502Z,11.27
2018-06-05T13:05:41.631Z,11.63
2018-06-05T13:08:10.404Z,13.17
2018-06-05T13:10:38.779Z,12.73
2018-06-05T13:13:07.570Z,12.23
2018-06-05T13:15:36.515Z,13.07
2018-06-05T13:18:05.287Z,13.27
2018-06-05T13:20:34.033Z,14.07
2018-06-05T13:23:02.517Z,13.63
2018-06-05T13:25:31.241Z,13.40
2018-06-05T13:28:00.026Z,13.40
2018-06-05T13:30:28.805Z,12.60
2018-06-05T13:32:57.627Z,14.57
2018-06-05T13:35:26.420Z,13.20
2018-06-05T13:37:55.260Z,13.73
2018-06-05T13:40:23.628Z,14.03
2018-06-05T13:42:52.392Z,13.10
2018-06-05T13:45:20.747Z,13.17
2018-06-05T13:47:49.658Z,13.27
2018-06-05T13:50:18.409Z,14.27
2018-06-05T13:52:47.168Z,14.53
2018-06-05T13:55:15.600Z,14.80
2018-06-05T13:57:44.385Z,14.80
2018-06-05T14:00:13.225Z,12.70
2018-06-05T14:02:41.985Z,14.60
2018-06-05T14:05:10.740Z,14.23
2018-06-05T14:07:39.112Z,14.10
2018-06-05T14:10:07.936Z,14.63
2018-06-05T14:12:36.738Z,14.33
2018-06-05T14:15:05.621Z,13.07
2018-06-05T14:17:34.393Z,13.70
2018-06-05T14:20:03.212Z,12.87
2018-06-05T14:22:32.127Z,13.67
2018-06-05T14:25:00.891Z,13.70
2018-06-05T14:27:29.645Z,13.63
2018-06-05T14:29:58.476Z,14.23
2018-06-05T14:32:26.830Z,13.37
2018-06-05T14:34:55.231Z,13.20
2018-06-05T14:37:24.035Z,12.87
2018-06-05T14:39:52.888Z,13.13
2018-06-05T14:42:21.638Z,12.73
2018-06-05T14:44:50.469Z,14.23
2018-06-05T14:47:19.717Z,13.37
2018-06-05T14:49:48.492Z,12.43
2018-06-05T14:52:17.260Z,13.13
2018-06-05T14:54:46.054Z,13.30
2018-06-05T14:57:14.449Z,12.87
2018-06-05T14:59:43.254Z,13.53
2018-06-05T15:02:11.673Z,13.23
2018-06-05T15:04:40.054Z,13.30
2018-06-05T15:07:09.319Z,13.03
2018-06-05T15:09:37.704Z,11.67
2018-06-05T15:12:06.482Z,14.37
2018-06-05T15:14:35.273Z,12.87
2018-06-05T15:17:04.076Z,12.77
2018-06-05T15:22:00.424Z,11.60
2018-06-05T15:24:29.245Z,11.50
2018-06-05T15:26:58.014Z,11.87
2018-06-05T15:29:26.823Z,12.23
2018-06-05T15:31:55.208Z,11.00
2018-06-05T15:34:24.015Z,11.37
2018-06-05T15:36:52.431Z,11.77
2018-06-05T15:39:21.294Z,11.37
2018-06-05T15:41:49.678Z,10.80
2018-06-05T15:44:18.477Z,11.07
2018-06-05T15:46:46.860Z,11.20
2018-06-05T15:49:15.222Z,10.90
2018-06-05T15:51:43.657Z,11.47
2018-06-05T15:54:12.595Z,10.90
2018-06-05T15:56:41.395Z,12.10
2018-06-05T15:59:09.764Z,10.45
2018-06-05T16:01:38.681Z,10.72
2018-06-05T16:04:07.415Z,10.30
2018-06-05T16:06:35.795Z,10.95
2018-06-05T16:09:06.085Z,10.10
2018-06-05T16:11:34.469Z,10.82
2018-06-05T16:14:03.601Z,8.90
2018-06-05T16:16:32.428Z,10.48
2018-06-05T16:19:01.211Z,9.25
2018-06-05T16:21:29.967Z,8.30
2018-06-05T16:23:58.794Z,9.33
2018-06-05T16:26:27.590Z,9.35
2018-06-05T16:28:56.796Z,9.00
2018-06-05T16:31:25.590Z,9.28
2018-06-05T16:33:53.937Z,9.33
2018-06-05T16:36:22.744Z,9.00
2018-06-05T16:38:51.552Z,8.68
2018-06-05T16:41:20.827Z,9.23
2018-06-05T16:43:49.566Z,8.75
2018-06-05T16:46:17.965Z,8.03
2018-06-05T16:48:46.730Z,8.85
2018-06-05T16:51:15.527Z,7.22
2018-06-05T16:53:43.965Z,9.20
2018-06-05T16:56:12.310Z,11.05
2018-06-05T16:58:40.712Z,9.98
2018-06-05T17:01:09.641Z,9.03
2018-06-05T17:03:38.036Z,9.65
2018-06-05T17:06:06.425Z,8.58
2018-06-05T17:08:35.211Z,8.55
2018-06-05T17:11:03.990Z,8.35
2018-06-05T17:13:32.821Z,9.08
2018-06-05T17:16:01.181Z,8.70
2018-06-05T17:18:29.944Z,7.70
2018-06-05T17:20:58.331Z,7.97
2018-06-05T17:23:26.838Z,8.98
2018-06-05T17:25:55.605Z,7.95
2018-06-05T17:28:24.348Z,7.95
2018-06-05T17:30:53.135Z,9.60
2018-06-05T17:33:21.900Z,10.65
2018-06-05T17:35:50.712Z,9.38
2018-06-05T17:38:19.476Z,7.72
2018-06-05T17:40:48.424Z,9.73
2018-06-05T17:43:17.212Z,7.87
2018-06-05T17:45:45.978Z,8.60
2018-06-05T17:48:14.749Z,8.80
2018-06-05T17:50:43.525Z,8.38
2018-06-05T17:53:12.803Z,8.63
2018-06-05T17:55:41.689Z,8.73
2018-06-05T17:58:10.811Z,9.05
2018-06-05T18:00:39.686Z,9.83
2018-06-05T18:03:08.642Z,8.30
2018-06-05T18:05:37.542Z,7.47
2018-06-05T18:08:06.447Z,8.43
2018-06-05T18:10:36.606Z,8.35
2018-06-05T18:13:05.418Z,7.87
2018-06-05T18:15:34.384Z,9.75
2018-06-05T18:18:02.925Z,8.88
2018-06-05T18:20:31.782Z,10.35
2018-06-05T18:23:00.601Z,9.80
2018-06-05T18:25:29.391Z,9.80
2018-06-05T18:27:58.129Z,10.97
2018-06-05T18:30:26.593Z,10.53
2018-06-05T18:32:55.188Z,9.80
2018-06-05T18:35:23.961Z,11.33
2018-06-05T18:37:52.301Z,10.40
2018-06-05T18:40:21.179Z,11.70
2018-06-05T18:42:49.934Z,12.23
2018-06-05T18:45:18.306Z,11.30
2018-06-05T18:47:47.120Z,11.23
2018-06-05T18:50:15.493Z,11.70
2018-06-05T18:52:43.888Z,11.37
2018-06-05T18:55:12.604Z,12.00
2018-06-05T18:57:41.037Z,12.77
2018-06-05T19:00:09.988Z,12.20
2018-06-05T19:02:38.750Z,13.17
2018-06-05T19:05:07.187Z,11.83
2018-06-05T19:07:36.008Z,13.00
2018-06-05T19:10:04.810Z,12.27
2018-06-05T19:12:33.635Z,12.83
2018-06-05T19:15:02.409Z,13.33
2018-06-05T19:17:30.829Z,12.23
2018-06-05T19:19:59.622Z,12.63
2018-06-05T19:22:28.044Z,12.47
2018-06-05T19:24:56.467Z,13.83
2018-06-05T19:27:24.841Z,13.13
2018-06-05T19:29:53.323Z,13.90
2018-06-05T19:32:22.031Z,14.13
2018-06-05T19:39:46.367Z,14.03
2018-06-05T19:42:14.768Z,15.50
2018-06-05T19:44:43.546Z,13.83
2018-06-05T19:47:11.967Z,13.93
2018-06-05T19:49:40.772Z,14.63
2018-06-05T19:52:09.736Z,14.37
2018-06-05T19:54:38.498Z,15.60
2018-06-05T19:57:07.298Z,15.50
2018-06-05T19:59:36.710Z,14.77
2018-06-05T20:02:05.109Z,14.50
2018-06-05T20:04:33.651Z,15.13
2018-06-05T20:07:02.592Z,14.50
2018-06-05T20:09:30.995Z,16.87
2018-06-05T20:11:59.780Z,15.10
2018-06-05T20:14:28.536Z,15.50
2018-06-05T20:16:57.248Z,13.83
2018-06-05T20:19:26.015Z,14.87
2018-06-05T20:21:54.779Z,15.40
2018-06-05T20:24:23.544Z,16.30
2018-06-05T20:26:51.930Z,16.23
2018-06-05T20:29:20.694Z,15.87
2018-06-05T20:31:49.066Z,14.70
2018-06-05T20:34:17.870Z,14.23
2018-06-05T20:36:46.270Z,15.33
2018-06-05T20:39:15.183Z,15.87
2018-06-05T20:41:43.636Z,15.53
2018-06-05T20:44:11.996Z,15.47
2018-06-05T20:46:40.782Z,16.53
2018-06-05T20:49:09.527Z,16.70
2018-06-05T20:51:38.798Z,17.00
2018-06-05T20:54:07.232Z,17.47
2018-06-05T20:56:35.611Z,16.77
2018-06-05T20:59:04.426Z,18.30
2018-06-05T21:01:32.770Z,17.57
2018-06-05T21:04:01.182Z,18.60
2018-06-05T21:06:29.526Z,17.57
2018-06-05T21:08:58.284Z,17.57
2018-06-05T21:11:27.097Z,17.57
2018-06-05T21:13:55.522Z,17.77
2018-06-05T21:16:24.260Z,17.17
2018-06-05T21:18:52.726Z,18.43
2018-06-05T21:21:21.453Z,16.40
2018-06-05T21:23:49.830Z,18.07
2018-06-05T21:26:19.169Z,17.73
2018-06-05T21:28:47.954Z,18.57
2018-06-05T21:31:16.715Z,19.13
2018-06-05T21:33:45.516Z,17.87
2018-06-05T21:36:14.324Z,17.50
2018-06-05T21:38:43.072Z,17.50
2018-06-05T21:41:11.837Z,16.20
2018-06-05T21:43:40.678Z,16.23
2018-06-05T21:46:09.646Z,13.93
2018-06-05T21:48:38.380Z,13.00
2018-06-05T21:51:07.144Z,12.57
2018-06-05T21:53:35.929Z,11.83
2018-06-05T21:56:04.706Z,12.47
2018-06-05T21:58:33.515Z,11.53
2018-06-05T22:03:59.286Z,11.43
2018-06-05T22:06:28.035Z,11.23
2018-06-05T22:08:56.787Z,12.47
2018-06-05T22:11:25.574Z,11.37
2018-06-05T22:13:54.355Z,12.17
2018-06-05T22:16:23.106Z,12.63
2018-06-05T22:18:51.511Z,10.87
2018-06-05T22:21:20.308Z,11.83
2018-06-05T22:23:48.709Z,12.60
2018-06-05T22:26:17.512Z,11.83
2018-06-05T22:28:46.279Z,11.77
2018-06-05T22:31:17.943Z,11.07
2018-06-05T22:33:46.738Z,11.97
2018-06-05T22:36:15.529Z,10.27
2018-06-05T22:38:43.900Z,11.17
2018-06-05T22:41:13.129Z,11.57
2018-06-05T22:43:41.930Z,11.13
2018-06-05T22:46:10.310Z,11.50
2018-06-05T22:48:39.070Z,11.60
2018-06-05T22:51:07.873Z,11.43
2018-06-05T22:53:36.624Z,11.90
2018-06-05T22:56:05.072Z,12.50
2018-06-05T22:58:33.838Z,11.57
2018-06-05T23:01:02.222Z,11.30
2018-06-05T23:03:31.015Z,11.17
2018-06-05T23:05:59.791Z,11.97
2018-06-05T23:08:28.598Z,12.03
2018-06-05T23:10:56.979Z,11.57
2018-06-05T23:13:27.089Z,11.10
2018-06-05T23:15:55.864Z,12.07
2018-06-05T23:18:24.583Z,11.10
2018-06-05T23:20:52.939Z,13.03
2018-06-05T23:23:21.682Z,10.93
2018-06-05T23:25:50.081Z,12.10
2018-06-05T23:28:18.839Z,11.60
2018-06-05T23:30:47.256Z,11.53
2018-06-05T23:33:15.680Z,11.27
2018-06-05T23:35:44.066Z,12.00
2018-06-05T23:38:12.887Z,11.57
2018-06-05T23:40:41.314Z,12.40
2018-06-05T23:43:09.691Z,10.87
2018-06-05T23:45:38.499Z,11.07
2018-06-05T23:48:06.878Z,11.90
2018-06-05T23:50:35.673Z,11.93
2018-06-05T23:53:04.458Z,12.67
2018-06-05T23:55:33.324Z,11.50
2018-06-05T23:58:02.050Z,13.10
